createdAt,value
2023-05-02T00:02:58.828Z,39.87
2023-05-02T00:06:02.773Z,40.18
2023-05-02T00:09:05.765Z,40.55
2023-05-02T00:12:10.783Z,40.81
2023-05-02T00:15:13.590Z,40.16
2023-05-02T00:18:16.064Z,40.81
2023-05-02T00:21:18.995Z,41.69
2023-05-02T00:24:21.412Z,39.42
2023-05-02T00:27:23.853Z,39.99
2023-05-02T00:30:27.472Z,40.68
2023-05-02T00:33:29.967Z,40.12
2023-05-02T00:36:32.548Z,41.35
2023-05-02T00:39:35.901Z,40.14
2023-05-02T00:42:38.626Z,41.19
2023-05-02T00:45:43.552Z,41.97
2023-05-02T00:48:45.887Z,40.49
2023-05-02T00:51:49.779Z,40.92
2023-05-02T00:54:54.067Z,41.35
2023-05-02T00:57:56.376Z,41.69
2023-05-02T01:01:15.073Z,41.30
2023-05-02T01:04:29.300Z,41.53
2023-05-02T01:07:47.071Z,41.97
2023-05-02T01:11:07.059Z,41.34
2023-05-02T01:14:11.806Z,42.47
2023-05-02T01:17:16.836Z,42.21
2023-05-02T01:20:22.192Z,41.42
2023-05-02T01:23:59.643Z,42.78
2023-05-02T01:27:14.654Z,42.72
2023-05-02T01:30:18.326Z,42.59
2023-05-02T01:33:21.505Z,43.16
2023-05-02T01:36:27.078Z,43.39
2023-05-02T01:39:30.672Z,43.43
2023-05-02T01:42:33.492Z,43.18
2023-05-02T01:45:36.273Z,43.64
2023-05-02T01:48:39.257Z,44.27
2023-05-02T01:51:49.335Z,44.38
2023-05-02T01:54:52.439Z,44.93
2023-05-02T01:57:55.894Z,44.40
2023-05-02T02:01:00.219Z,45.23
2023-05-02T02:04:05.655Z,45.12
2023-05-02T02:07:10.166Z,45.23
2023-05-02T02:10:13.192Z,45.16
2023-05-02T02:13:38.072Z,44.72
2023-05-02T02:16:41.850Z,45.66
2023-05-02T02:19:46.690Z,45.41
2023-05-02T02:22:49.307Z,44.90
2023-05-02T02:25:52.476Z,46.82
2023-05-02T02:28:56.306Z,46.04
2023-05-02T02:31:59.933Z,46.69
2023-05-02T02:35:06.089Z,46.20
2023-05-02T02:38:11.492Z,46.53
2023-05-02T02:41:19.320Z,46.84
2023-05-02T02:44:24.587Z,46.73
2023-05-02T02:47:52.935Z,46.97
2023-05-02T02:51:04.222Z,46.92
2023-05-02T02:54:38.459Z,48.17
2023-05-02T02:58:17.687Z,47.55
2023-05-02T03:01:22.652Z,47.55
2023-05-02T03:04:26.635Z,47.83
2023-05-02T03:07:29.977Z,48.82
2023-05-02T03:10:33.922Z,48.52
2023-05-02T03:13:37.580Z,49.42
2023-05-02T03:16:41.341Z,48.51
2023-05-02T03:19:48.565Z,48.67
2023-05-02T03:22:53.237Z,49.21
2023-05-02T03:25:55.683Z,49.26
2023-05-02T03:29:01.712Z,49.92
2023-05-02T03:32:11.221Z,49.63
2023-05-02T03:35:15.588Z,50.07
2023-05-02T03:38:20.003Z,49.56
2023-05-02T03:41:27.481Z,49.32
2023-05-02T03:44:37.037Z,48.70
2023-05-02T03:47:39.544Z,48.17
2023-05-02T03:50:42.193Z,47.61
2023-05-02T03:53:44.619Z,48.88
2023-05-02T03:56:48.000Z,48.53
2023-05-02T03:59:59.640Z,49.70
2023-05-02T04:03:03.752Z,50.29
2023-05-02T04:06:08.639Z,49.47
2023-05-02T04:09:11.179Z,48.78
2023-05-02T04:12:24.998Z,48.58
2023-05-02T04:15:28.744Z,48.17
2023-05-02T04:18:31.714Z,48.34
2023-05-02T04:21:37.409Z,49.94
2023-05-02T04:24:41.312Z,50.66
2023-05-02T04:27:43.690Z,50.13
2023-05-02T04:30:50.162Z,49.68
2023-05-02T04:33:54.522Z,52.02
2023-05-02T04:37:01.655Z,51.32
2023-05-02T04:40:04.817Z,50.07
2023-05-02T04:43:07.618Z,50.44
2023-05-02T04:46:21.087Z,50.09
2023-05-02T04:49:23.486Z,51.12
2023-05-02T04:52:26.335Z,49.35
2023-05-02T04:55:28.830Z,49.89
2023-05-02T04:58:31.403Z,51.73
2023-05-02T05:01:38.202Z,50.85
2023-05-02T05:04:41.466Z,48.48
2023-05-02T05:07:45.529Z,47.84
2023-05-02T05:10:48.489Z,47.63
2023-05-02T05:13:50.937Z,47.40
2023-05-02T05:16:54.088Z,47.37
2023-05-02T05:19:56.910Z,47.57
2023-05-02T05:22:59.706Z,47.49
2023-05-02T05:26:13.616Z,47.40
2023-05-02T05:29:19.163Z,47.28
2023-05-02T05:32:22.208Z,47.26
2023-05-02T05:35:28.950Z,47.69
2023-05-02T05:38:33.296Z,46.86
2023-05-02T05:41:35.903Z,48.23
2023-05-02T05:44:41.684Z,47.04
2023-05-02T05:47:44.769Z,46.72
2023-05-02T05:50:47.248Z,46.48
2023-05-02T05:53:49.682Z,45.98
2023-05-02T05:56:52.572Z,44.99
2023-05-02T05:59:56.080Z,43.37
2023-05-02T06:02:58.862Z,42.95
2023-05-02T06:06:04.681Z,42.66
2023-05-02T06:09:07.482Z,41.75
2023-05-02T06:12:09.865Z,42.15
2023-05-02T06:15:13.249Z,42.00
2023-05-02T06:18:18.397Z,41.59
2023-05-02T06:21:22.963Z,40.47
2023-05-02T06:24:25.524Z,40.00
2023-05-02T06:27:27.991Z,39.36
2023-05-02T06:30:30.266Z,38.69
2023-05-02T06:33:33.368Z,39.76
2023-05-02T06:36:37.938Z,40.27
2023-05-02T06:39:41.177Z,38.92
2023-05-02T06:42:43.536Z,38.83
2023-05-02T06:45:47.418Z,39.03
2023-05-02T06:48:49.736Z,39.76
2023-05-02T06:51:52.102Z,37.88
2023-05-02T06:54:54.433Z,36.48
2023-05-02T06:57:57.181Z,36.00
2023-05-02T07:01:00.279Z,36.56
2023-05-02T07:04:05.938Z,36.36
2023-05-02T07:07:08.316Z,36.59
2023-05-02T07:10:11.441Z,36.28
2023-05-02T07:13:13.889Z,36.06
2023-05-02T07:16:16.266Z,36.30
2023-05-02T07:19:18.604Z,36.26
2023-05-02T07:22:21.995Z,36.15
2023-05-02T07:25:24.452Z,35.69
2023-05-02T07:28:26.801Z,34.75
2023-05-02T07:31:29.519Z,35.29
2023-05-02T07:34:33.611Z,35.24
2023-05-02T07:37:39.017Z,35.73
2023-05-02T07:40:43.523Z,36.33
2023-05-02T07:43:45.799Z,35.37
2023-05-02T07:46:48.343Z,35.32
2023-05-02T07:49:51.897Z,36.01
2023-05-02T07:52:58.546Z,35.73
2023-05-02T07:56:10.423Z,35.43
2023-05-02T07:59:12.905Z,33.71
2023-05-02T08:02:17.876Z,33.23
2023-05-02T08:05:20.503Z,34.07
2023-05-02T08:08:24.971Z,33.89
2023-05-02T08:11:28.468Z,33.33
2023-05-02T08:14:31.713Z,33.28
2023-05-02T08:17:34.432Z,32.58
2023-05-02T08:20:36.843Z,33.11
2023-05-02T08:23:41.405Z,33.94
2023-05-02T08:26:44.329Z,33.76
2023-05-02T08:29:46.703Z,33.98
2023-05-02T08:32:49.076Z,33.40
2023-05-02T08:35:51.412Z,33.45
2023-05-02T08:38:53.764Z,33.54
2023-05-02T08:41:56.146Z,33.44
2023-05-02T08:44:59.225Z,32.86
2023-05-02T08:48:01.684Z,32.96
2023-05-02T08:51:06.485Z,32.06
2023-05-02T08:54:10.444Z,32.12
2023-05-02T08:57:12.822Z,32.06
2023-05-02T09:00:17.099Z,31.58
2023-05-02T09:03:36.356Z,32.21
2023-05-02T09:06:38.990Z,31.14
2023-05-02T09:09:41.491Z,30.96
2023-05-02T09:12:44.772Z,31.74
2023-05-02T09:16:01.185Z,31.59
2023-05-02T09:19:03.529Z,31.33
2023-05-02T09:22:05.846Z,30.55
2023-05-02T09:25:09.454Z,32.13
2023-05-02T09:28:12.095Z,31.14
2023-05-02T09:31:49.533Z,32.14
2023-05-02T09:35:06.788Z,31.29
2023-05-02T09:38:20.561Z,31.66
2023-05-02T09:41:23.490Z,30.79
2023-05-02T09:44:27.364Z,29.90
2023-05-02T09:47:29.834Z,30.68
2023-05-02T09:50:38.053Z,30.30
2023-05-02T09:53:49.110Z,30.39
2023-05-02T09:56:57.874Z,29.79
2023-05-02T10:00:00.273Z,31.96
2023-05-02T10:03:03.924Z,30.59
2023-05-02T10:06:09.261Z,30.07
2023-05-02T10:09:18.914Z,30.43
2023-05-02T10:12:24.617Z,29.41
2023-05-02T10:15:28.730Z,29.88
2023-05-02T10:18:42.038Z,29.04
2023-05-02T10:21:44.436Z,29.74
2023-05-02T10:24:49.224Z,29.82
2023-05-02T10:27:51.658Z,29.62
2023-05-02T10:30:54.687Z,29.96
2023-05-02T10:33:57.639Z,31.01
2023-05-02T10:37:03.270Z,30.50
2023-05-02T10:40:07.159Z,30.06
2023-05-02T10:43:14.959Z,29.88
2023-05-02T10:46:32.180Z,29.71
2023-05-02T10:49:52.492Z,30.75
2023-05-02T10:52:54.860Z,30.57
2023-05-02T10:56:21.784Z,30.48
2023-05-02T10:59:29.032Z,31.42
2023-05-02T11:02:31.424Z,30.74
2023-05-02T11:06:07.088Z,30.68
2023-05-02T11:09:21.629Z,32.22
2023-05-02T11:12:47.558Z,31.70
2023-05-02T11:15:50.254Z,31.19
2023-05-02T11:19:01.055Z,30.63
2023-05-02T11:22:23.417Z,32.03
2023-05-02T11:25:31.827Z,31.55
2023-05-02T11:28:37.208Z,30.92
2023-05-02T11:46:29.855Z,31.46
2023-05-02T11:49:32.340Z,30.38
2023-05-02T11:52:39.120Z,31.77
2023-05-02T11:55:55.039Z,29.94
2023-05-02T11:59:05.417Z,29.65
2023-05-02T12:02:07.989Z,29.75
2023-05-02T12:05:13.377Z,29.73
2023-05-02T12:08:33.958Z,29.81
2023-05-02T12:11:38.189Z,30.62
2023-05-02T12:14:41.322Z,29.46
2023-05-02T12:17:52.341Z,29.93
2023-05-02T12:20:56.098Z,28.83
2023-05-02T12:23:58.901Z,28.19
2023-05-02T12:27:15.007Z,29.40
2023-05-02T12:30:27.438Z,28.28
2023-05-02T12:33:29.777Z,28.82
2023-05-02T12:36:34.350Z,29.29
2023-05-02T12:39:43.597Z,28.67
2023-05-02T12:43:00.524Z,28.65
2023-05-02T12:46:12.223Z,28.87
2023-05-02T12:49:14.770Z,28.22
2023-05-02T12:52:18.798Z,29.60
2023-05-02T12:55:24.485Z,29.38
2023-05-02T12:58:28.590Z,29.72
2023-05-02T13:01:33.292Z,30.43
2023-05-02T13:04:41.225Z,30.83
2023-05-02T13:07:44.113Z,30.60
2023-05-02T13:10:46.408Z,30.14
2023-05-02T13:13:48.734Z,30.54
2023-05-02T13:16:53.701Z,30.04
2023-05-02T13:20:01.612Z,30.84
2023-05-02T13:23:05.215Z,30.08
2023-05-02T13:26:07.516Z,30.11
2023-05-02T13:29:11.795Z,30.55
2023-05-02T13:32:14.164Z,30.58
2023-05-02T13:35:16.880Z,30.68
2023-05-02T13:38:19.448Z,30.71
2023-05-02T13:41:21.805Z,30.67
2023-05-02T13:44:24.232Z,31.17
2023-05-02T13:47:26.951Z,31.31
2023-05-02T13:50:29.348Z,31.30
2023-05-02T13:53:31.672Z,31.34
2023-05-02T13:56:34.195Z,31.82
2023-05-02T13:59:37.465Z,32.19
2023-05-02T14:02:40.169Z,31.17
2023-05-02T14:05:44.095Z,31.61
2023-05-02T14:08:46.524Z,31.19
2023-05-02T14:11:49.498Z,30.70
2023-05-02T14:14:52.818Z,31.56
2023-05-02T14:17:55.203Z,31.22
2023-05-02T14:21:00.152Z,32.27
2023-05-02T14:24:02.501Z,30.85
2023-05-02T14:27:04.874Z,30.84
2023-05-02T14:30:07.906Z,31.14
2023-05-02T14:33:10.394Z,31.34
2023-05-02T14:36:12.802Z,32.20
2023-05-02T14:39:15.271Z,31.82
2023-05-02T14:42:17.521Z,32.35
2023-05-02T14:45:19.966Z,31.38
2023-05-02T14:48:22.320Z,31.90
2023-05-02T14:51:24.743Z,32.53
2023-05-02T14:54:28.689Z,32.44
2023-05-02T14:57:31.076Z,32.27
2023-05-02T15:00:35.238Z,32.57
2023-05-02T15:03:49.156Z,31.47
2023-05-02T15:07:02.921Z,32.27
2023-05-02T15:10:05.997Z,31.83
2023-05-02T15:13:08.996Z,32.21
2023-05-02T15:16:11.480Z,31.99
2023-05-02T15:19:14.104Z,31.91
2023-05-02T15:22:18.303Z,33.40
2023-05-02T15:25:20.698Z,32.05
2023-05-02T15:28:23.042Z,32.68
2023-05-02T15:31:25.359Z,32.58
2023-05-02T15:34:28.190Z,32.65
2023-05-02T15:37:30.878Z,32.52
2023-05-02T15:40:33.262Z,33.42
2023-05-02T15:43:35.676Z,31.71
2023-05-02T15:46:39.502Z,31.21
2023-05-02T15:49:41.921Z,31.47
2023-05-02T15:52:44.256Z,31.96
2023-05-02T15:55:49.107Z,31.24
2023-05-02T15:58:51.454Z,32.00
2023-05-02T16:01:53.841Z,31.97
2023-05-02T16:04:56.194Z,31.61
2023-05-02T16:07:58.580Z,32.21
2023-05-02T16:11:01.905Z,31.63
2023-05-02T16:14:04.257Z,32.22
2023-05-02T16:17:06.701Z,31.98
2023-05-02T16:20:10.708Z,32.12
2023-05-02T16:23:14.575Z,32.50
2023-05-02T16:26:16.844Z,32.74
2023-05-02T16:29:19.231Z,32.22
2023-05-02T16:32:23.535Z,31.90
2023-05-02T16:35:25.870Z,32.04
2023-05-02T16:38:28.221Z,31.84
2023-05-02T16:41:30.828Z,31.06
2023-05-02T16:44:33.151Z,31.23
2023-05-02T16:47:38.625Z,31.20
2023-05-02T16:50:41.128Z,31.48
2023-05-02T16:53:43.917Z,31.54
2023-05-02T16:56:46.417Z,32.16
2023-05-02T16:59:50.585Z,32.71
2023-05-02T17:02:56.858Z,32.59
2023-05-02T17:06:01.376Z,32.37
2023-05-02T17:09:04.302Z,32.89
2023-05-02T17:12:07.642Z,34.57
2023-05-02T17:15:17.641Z,36.17
2023-05-02T17:18:22.469Z,37.60
2023-05-02T17:21:24.895Z,38.26
2023-05-02T17:24:28.505Z,39.14
2023-05-02T17:27:31.206Z,39.74
2023-05-02T17:30:34.077Z,40.16
2023-05-02T17:33:36.588Z,40.34
2023-05-02T17:36:42.041Z,40.88
2023-05-02T17:39:44.347Z,41.09
2023-05-02T17:42:46.813Z,40.88
2023-05-02T17:45:49.103Z,40.89
2023-05-02T17:48:52.130Z,41.04
2023-05-02T17:51:54.707Z,41.48
2023-05-02T17:54:57.037Z,41.15
2023-05-02T17:57:59.471Z,42.15
2023-05-02T18:01:11.792Z,41.33
2023-05-02T18:04:15.014Z,41.90
2023-05-02T18:07:23.714Z,42.17
2023-05-02T18:10:26.177Z,43.33
2023-05-02T18:13:28.484Z,43.34
2023-05-02T18:16:32.089Z,43.20
2023-05-02T18:19:34.471Z,43.82
2023-05-02T18:22:36.927Z,45.33
2023-05-02T18:25:41.939Z,46.61
2023-05-02T18:28:46.751Z,47.56
2023-05-02T18:31:55.230Z,47.31
2023-05-02T18:34:57.596Z,47.80
2023-05-02T18:37:59.970Z,48.15
2023-05-02T18:41:02.443Z,47.83
2023-05-02T18:44:06.852Z,47.32
2023-05-02T18:47:09.919Z,46.26
2023-05-02T18:50:12.246Z,47.48
2023-05-02T18:53:21.252Z,47.26
2023-05-02T18:56:25.078Z,46.82
2023-05-02T18:59:27.489Z,47.25
2023-05-02T19:02:29.839Z,47.74
2023-05-02T19:05:34.976Z,48.33
2023-05-02T19:08:37.451Z,49.97
2023-05-02T19:11:40.596Z,49.99
2023-05-02T19:14:43.278Z,50.29
2023-05-02T19:17:45.737Z,51.00
2023-05-02T19:20:48.062Z,53.34
2023-05-02T19:23:50.529Z,52.60
2023-05-02T19:26:53.353Z,54.10
2023-05-02T19:29:55.727Z,54.12
2023-05-02T19:32:58.158Z,53.92
2023-05-02T19:36:00.535Z,54.28
2023-05-02T19:39:04.270Z,53.78
2023-05-02T19:42:06.958Z,54.69
2023-05-02T19:45:10.152Z,55.14
2023-05-02T19:48:13.470Z,55.10
2023-05-02T19:51:21.945Z,55.62
2023-05-02T19:54:25.513Z,56.06
2023-05-02T19:57:27.786Z,55.91
2023-05-02T20:00:30.610Z,57.51
2023-05-02T20:03:34.901Z,56.93
2023-05-02T20:06:37.798Z,55.79
2023-05-02T20:09:40.125Z,56.11
2023-05-02T20:12:44.936Z,56.92
2023-05-02T20:15:50.312Z,58.04
2023-05-02T20:18:53.006Z,60.52
2023-05-02T20:21:56.256Z,62.54
2023-05-02T20:24:58.593Z,62.45
2023-05-02T20:28:01.206Z,61.57
2023-05-02T20:31:03.626Z,62.61
2023-05-02T20:34:07.529Z,61.37
2023-05-02T20:37:13.443Z,60.10
2023-05-02T20:40:15.846Z,63.38
2023-05-02T20:43:22.975Z,63.73
2023-05-02T20:46:25.513Z,64.06
2023-05-02T20:49:31.568Z,65.58
2023-05-02T20:52:33.992Z,66.50
2023-05-02T20:55:36.331Z,66.77
2023-05-02T20:58:38.716Z,65.93
2023-05-02T21:01:41.367Z,65.88
2023-05-02T21:04:43.794Z,65.53
2023-05-02T21:07:46.587Z,65.93
2023-05-02T21:10:48.908Z,65.93
2023-05-02T21:13:51.259Z,65.98
2023-05-02T21:16:53.701Z,67.21
2023-05-02T21:19:58.675Z,68.77
2023-05-02T21:23:00.961Z,67.65
2023-05-02T21:26:04.040Z,67.22
2023-05-02T21:29:07.066Z,66.63
2023-05-02T21:32:09.411Z,66.39
2023-05-02T21:35:12.382Z,65.60
2023-05-02T21:38:14.662Z,67.14
2023-05-02T21:41:17.141Z,67.39
2023-05-02T21:44:19.821Z,67.94
2023-05-02T21:47:22.379Z,67.08
2023-05-02T21:50:24.811Z,67.15
2023-05-02T21:53:27.283Z,67.31
2023-05-02T21:56:29.997Z,68.29
2023-05-02T21:59:32.304Z,67.46
2023-05-02T22:02:35.000Z,66.86
2023-05-02T22:05:41.845Z,67.29
2023-05-02T22:08:44.864Z,68.41
2023-05-02T22:11:47.326Z,68.30
2023-05-02T22:14:50.108Z,69.23
2023-05-02T22:17:54.978Z,69.25
2023-05-02T22:20:58.784Z,68.83
2023-05-02T22:24:01.106Z,69.18
2023-05-02T22:27:03.464Z,69.34
2023-05-02T22:30:07.649Z,70.45
2023-05-02T22:33:10.131Z,70.78
2023-05-02T22:36:12.777Z,69.99
2023-05-02T22:39:15.865Z,69.92
2023-05-02T22:42:18.491Z,70.31
2023-05-02T22:45:21.389Z,69.27
2023-05-02T22:48:23.671Z,69.87
2023-05-02T22:51:26.016Z,70.61
2023-05-02T22:54:28.310Z,69.96
2023-05-02T22:57:30.985Z,70.16
2023-05-02T23:00:33.769Z,70.45
2023-05-02T23:03:36.319Z,70.13
2023-05-02T23:06:38.698Z,69.99
2023-05-02T23:09:41.004Z,70.30
2023-05-02T23:12:43.330Z,70.38
2023-05-02T23:15:46.128Z,70.00
2023-05-02T23:18:48.538Z,70.46
2023-05-02T23:21:50.895Z,71.21
2023-05-02T23:24:53.208Z,70.79
2023-05-02T23:27:55.628Z,71.29
2023-05-02T23:30:58.037Z,70.70
2023-05-02T23:34:00.772Z,71.61
2023-05-02T23:37:03.316Z,70.94
2023-05-02T23:40:09.309Z,71.20
2023-05-02T23:43:13.890Z,71.47
2023-05-02T23:46:16.251Z,71.73
2023-05-02T23:49:18.778Z,71.43
2023-05-02T23:52:21.198Z,71.70
2023-05-02T23:55:23.570Z,70.49
2023-05-02T23:58:25.869Z,70.56
